sensor_id;sensor_type;location;lat;lon;timestamp;temperature;humidity
11846;DHT22;5982;37.494;-8.758;2023-04-24T00:01:33;14.40;99.90
11846;DHT22;5982;37.494;-8.758;2023-04-24T00:04:02;14.30;99.90
11846;DHT22;5982;37.494;-8.758;2023-04-24T00:06:30;14.30;99.90
11846;DHT22;5982;37.494;-8.758;2023-04-24T00:09:00;14.20;99.90
11846;DHT22;5982;37.494;-8.758;2023-04-24T00:11:28;14.20;99.90
11846;DHT22;5982;37.494;-8.758;2023-04-24T00:13:58;14.20;99.90
11846;DHT22;5982;37.494;-8.758;2023-04-24T00:16:25;14.30;99.90
11846;DHT22;5982;37.494;-8.758;2023-04-24T00:18:53;14.40;99.90
11846;DHT22;5982;37.494;-8.758;2023-04-24T00:21:21;14.40;99.90
11846;DHT22;5982;37.494;-8.758;2023-04-24T00:23:51;14.50;99.90
11846;DHT22;5982;37.494;-8.758;2023-04-24T00:26:18;14.70;99.90
11846;DHT22;5982;37.494;-8.758;2023-04-24T00:28:46;14.70;99.90
11846;DHT22;5982;37.494;-8.758;2023-04-24T00:31:16;14.80;99.90
11846;DHT22;5982;37.494;-8.758;2023-04-24T00:33:44;14.80;99.90
11846;DHT22;5982;37.494;-8.758;2023-04-24T00:36:12;14.90;99.90
11846;DHT22;5982;37.494;-8.758;2023-04-24T00:38:40;15.00;99.90
11846;DHT22;5982;37.494;-8.758;2023-04-24T00:41:07;15.00;99.90
11846;DHT22;5982;37.494;-8.758;2023-04-24T00:43:35;15.10;99.90
11846;DHT22;5982;37.494;-8.758;2023-04-24T00:46:03;15.10;99.90
11846;DHT22;5982;37.494;-8.758;2023-04-24T00:48:32;15.20;99.90
11846;DHT22;5982;37.494;-8.758;2023-04-24T00:51:00;15.20;99.90
11846;DHT22;5982;37.494;-8.758;2023-04-24T00:53:28;15.20;99.90
11846;DHT22;5982;37.494;-8.758;2023-04-24T00:55:56;15.10;99.90
11846;DHT22;5982;37.494;-8.758;2023-04-24T00:58:24;15.00;99.90
11846;DHT22;5982;37.494;-8.758;2023-04-24T01:00:52;14.90;99.90
11846;DHT22;5982;37.494;-8.758;2023-04-24T01:03:21;14.90;99.90
11846;DHT22;5982;37.494;-8.758;2023-04-24T01:05:51;14.90;99.90
11846;DHT22;5982;37.494;-8.758;2023-04-24T01:08:19;14.80;99.90
11846;DHT22;5982;37.494;-8.758;2023-04-24T01:10:48;14.90;99.90
11846;DHT22;5982;37.494;-8.758;2023-04-24T01:13:17;14.80;99.90
11846;DHT22;5982;37.494;-8.758;2023-04-24T01:15:45;14.80;99.90
11846;DHT22;5982;37.494;-8.758;2023-04-24T01:18:13;14.80;99.90
11846;DHT22;5982;37.494;-8.758;2023-04-24T01:20:41;14.80;99.90
11846;DHT22;5982;37.494;-8.758;2023-04-24T01:23:12;14.80;99.90
11846;DHT22;5982;37.494;-8.758;2023-04-24T01:25:40;14.80;99.90
11846;DHT22;5982;37.494;-8.758;2023-04-24T01:28:08;14.80;99.90
11846;DHT22;5982;37.494;-8.758;2023-04-24T01:30:36;14.80;99.90
11846;DHT22;5982;37.494;-8.758;2023-04-24T01:33:04;14.80;99.90
11846;DHT22;5982;37.494;-8.758;2023-04-24T01:35:32;14.70;99.90
11846;DHT22;5982;37.494;-8.758;2023-04-24T01:38:00;14.60;99.90
11846;DHT22;5982;37.494;-8.758;2023-04-24T01:40:29;14.60;99.90
11846;DHT22;5982;37.494;-8.758;2023-04-24T01:42:57;14.50;99.90
11846;DHT22;5982;37.494;-8.758;2023-04-24T01:45:25;14.40;99.90
11846;DHT22;5982;37.494;-8.758;2023-04-24T01:47:53;14.40;99.90
11846;DHT22;5982;37.494;-8.758;2023-04-24T01:50:21;14.40;99.90
11846;DHT22;5982;37.494;-8.758;2023-04-24T01:52:48;14.40;99.90
11846;DHT22;5982;37.494;-8.758;2023-04-24T01:55:16;14.40;99.90
11846;DHT22;5982;37.494;-8.758;2023-04-24T01:57:46;14.40;99.90
11846;DHT22;5982;37.494;-8.758;2023-04-24T02:00:13;14.50;99.90
11846;DHT22;5982;37.494;-8.758;2023-04-24T02:02:41;14.60;99.90
11846;DHT22;5982;37.494;-8.758;2023-04-24T02:05:09;14.70;99.90
11846;DHT22;5982;37.494;-8.758;2023-04-24T02:07:37;14.70;99.90
11846;DHT22;5982;37.494;-8.758;2023-04-24T02:10:05;14.70;99.90
11846;DHT22;5982;37.494;-8.758;2023-04-24T02:12:34;14.70;99.90
11846;DHT22;5982;37.494;-8.758;2023-04-24T02:15:03;14.70;99.90
11846;DHT22;5982;37.494;-8.758;2023-04-24T02:17:32;14.70;99.90
11846;DHT22;5982;37.494;-8.758;2023-04-24T02:20:00;14.70;99.90
11846;DHT22;5982;37.494;-8.758;2023-04-24T02:22:27;14.50;99.90
11846;DHT22;5982;37.494;-8.758;2023-04-24T02:24:56;14.50;99.90
11846;DHT22;5982;37.494;-8.758;2023-04-24T02:27:23;14.30;99.90
11846;DHT22;5982;37.494;-8.758;2023-04-24T02:29:51;14.30;99.90
11846;DHT22;5982;37.494;-8.758;2023-04-24T02:32:20;14.30;99.90
11846;DHT22;5982;37.494;-8.758;2023-04-24T02:34:48;14.30;99.90
11846;DHT22;5982;37.494;-8.758;2023-04-24T02:37:16;14.30;99.90
11846;DHT22;5982;37.494;-8.758;2023-04-24T02:39:44;14.40;99.90
11846;DHT22;5982;37.494;-8.758;2023-04-24T02:42:12;14.50;99.90
11846;DHT22;5982;37.494;-8.758;2023-04-24T02:44:39;14.50;99.90
11846;DHT22;5982;37.494;-8.758;2023-04-24T02:47:07;14.50;99.90
11846;DHT22;5982;37.494;-8.758;2023-04-24T02:49:37;14.60;99.90
11846;DHT22;5982;37.494;-8.758;2023-04-24T02:52:05;14.60;99.90
11846;DHT22;5982;37.494;-8.758;2023-04-24T02:54:33;14.60;99.90
11846;DHT22;5982;37.494;-8.758;2023-04-24T02:57:00;14.50;99.90
11846;DHT22;5982;37.494;-8.758;2023-04-24T02:59:28;14.50;99.90
11846;DHT22;5982;37.494;-8.758;2023-04-24T03:01:56;14.40;99.90
11846;DHT22;5982;37.494;-8.758;2023-04-24T03:04:24;14.40;99.90
11846;DHT22;5982;37.494;-8.758;2023-04-24T03:06:53;14.30;99.90
11846;DHT22;5982;37.494;-8.758;2023-04-24T03:09:22;14.30;99.90
11846;DHT22;5982;37.494;-8.758;2023-04-24T03:11:49;14.40;99.90
11846;DHT22;5982;37.494;-8.758;2023-04-24T03:14:17;14.40;99.90
11846;DHT22;5982;37.494;-8.758;2023-04-24T03:16:45;14.40;99.90
11846;DHT22;5982;37.494;-8.758;2023-04-24T03:19:13;14.40;99.90
11846;DHT22;5982;37.494;-8.758;2023-04-24T03:21:41;14.40;99.90
11846;DHT22;5982;37.494;-8.758;2023-04-24T03:24:10;14.30;99.90
11846;DHT22;5982;37.494;-8.758;2023-04-24T03:26:38;14.30;99.90
11846;DHT22;5982;37.494;-8.758;2023-04-24T03:29:05;14.30;99.90
11846;DHT22;5982;37.494;-8.758;2023-04-24T03:31:33;14.30;99.90
11846;DHT22;5982;37.494;-8.758;2023-04-24T03:34:01;14.30;99.90
11846;DHT22;5982;37.494;-8.758;2023-04-24T03:36:29;14.30;99.90
11846;DHT22;5982;37.494;-8.758;2023-04-24T03:38:57;14.30;99.90
11846;DHT22;5982;37.494;-8.758;2023-04-24T03:41:26;14.30;99.90
11846;DHT22;5982;37.494;-8.758;2023-04-24T03:43:55;14.40;99.90
11846;DHT22;5982;37.494;-8.758;2023-04-24T03:46:23;14.40;99.90
11846;DHT22;5982;37.494;-8.758;2023-04-24T03:48:51;14.40;99.90
11846;DHT22;5982;37.494;-8.758;2023-04-24T03:51:19;14.40;99.90
11846;DHT22;5982;37.494;-8.758;2023-04-24T03:53:47;14.40;99.90
11846;DHT22;5982;37.494;-8.758;2023-04-24T03:56:15;14.40;99.90
11846;DHT22;5982;37.494;-8.758;2023-04-24T03:58:44;14.30;99.90
11846;DHT22;5982;37.494;-8.758;2023-04-24T04:01:12;14.30;99.90
11846;DHT22;5982;37.494;-8.758;2023-04-24T04:03:41;14.30;99.90
11846;DHT22;5982;37.494;-8.758;2023-04-24T04:06:09;14.40;99.90
11846;DHT22;5982;37.494;-8.758;2023-04-24T04:08:38;14.40;99.90
11846;DHT22;5982;37.494;-8.758;2023-04-24T04:11:06;14.50;99.90
11846;DHT22;5982;37.494;-8.758;2023-04-24T04:13:34;14.50;99.90
11846;DHT22;5982;37.494;-8.758;2023-04-24T04:16:03;14.40;99.90
11846;DHT22;5982;37.494;-8.758;2023-04-24T04:20:59;14.40;99.90
11846;DHT22;5982;37.494;-8.758;2023-04-24T04:23:26;14.40;99.90
11846;DHT22;5982;37.494;-8.758;2023-04-24T04:25:55;14.40;99.90
11846;DHT22;5982;37.494;-8.758;2023-04-24T04:28:23;14.30;99.90
11846;DHT22;5982;37.494;-8.758;2023-04-24T04:30:51;14.30;99.90
11846;DHT22;5982;37.494;-8.758;2023-04-24T04:33:22;14.30;99.90
11846;DHT22;5982;37.494;-8.758;2023-04-24T04:35:50;14.40;99.90
11846;DHT22;5982;37.494;-8.758;2023-04-24T04:38:18;14.30;99.90
11846;DHT22;5982;37.494;-8.758;2023-04-24T04:40:46;14.30;99.90
11846;DHT22;5982;37.494;-8.758;2023-04-24T04:43:14;14.30;99.90
11846;DHT22;5982;37.494;-8.758;2023-04-24T04:45:42;14.30;99.90
11846;DHT22;5982;37.494;-8.758;2023-04-24T04:48:10;14.40;99.90
11846;DHT22;5982;37.494;-8.758;2023-04-24T04:50:40;14.40;99.90
11846;DHT22;5982;37.494;-8.758;2023-04-24T04:53:08;14.40;99.90
11846;DHT22;5982;37.494;-8.758;2023-04-24T04:55:36;14.50;99.90
11846;DHT22;5982;37.494;-8.758;2023-04-24T04:58:04;14.50;99.90
11846;DHT22;5982;37.494;-8.758;2023-04-24T05:00:32;14.50;99.90
11846;DHT22;5982;37.494;-8.758;2023-04-24T05:03:01;14.50;99.90
11846;DHT22;5982;37.494;-8.758;2023-04-24T05:05:29;14.60;99.90
11846;DHT22;5982;37.494;-8.758;2023-04-24T05:07:58;14.50;99.90
11846;DHT22;5982;37.494;-8.758;2023-04-24T05:10:26;14.50;99.90
11846;DHT22;5982;37.494;-8.758;2023-04-24T05:12:54;14.50;99.90
11846;DHT22;5982;37.494;-8.758;2023-04-24T05:15:22;14.50;99.90
11846;DHT22;5982;37.494;-8.758;2023-04-24T05:17:49;14.50;99.90
11846;DHT22;5982;37.494;-8.758;2023-04-24T05:20:17;14.50;99.90
11846;DHT22;5982;37.494;-8.758;2023-04-24T05:22:45;14.50;99.90
11846;DHT22;5982;37.494;-8.758;2023-04-24T05:25:14;14.50;99.90
11846;DHT22;5982;37.494;-8.758;2023-04-24T05:27:42;14.50;99.90
11846;DHT22;5982;37.494;-8.758;2023-04-24T05:30:11;14.50;99.90
11846;DHT22;5982;37.494;-8.758;2023-04-24T05:32:39;14.40;99.90
11846;DHT22;5982;37.494;-8.758;2023-04-24T05:35:07;14.40;99.90
11846;DHT22;5982;37.494;-8.758;2023-04-24T05:37:35;14.40;99.90
11846;DHT22;5982;37.494;-8.758;2023-04-24T05:40:03;14.40;99.90
11846;DHT22;5982;37.494;-8.758;2023-04-24T05:42:33;14.40;99.90
11846;DHT22;5982;37.494;-8.758;2023-04-24T05:45:01;14.40;99.90
11846;DHT22;5982;37.494;-8.758;2023-04-24T05:47:29;14.40;99.90
11846;DHT22;5982;37.494;-8.758;2023-04-24T05:49:57;14.40;99.90
11846;DHT22;5982;37.494;-8.758;2023-04-24T05:52:25;14.40;99.90
11846;DHT22;5982;37.494;-8.758;2023-04-24T05:54:53;14.40;99.90
11846;DHT22;5982;37.494;-8.758;2023-04-24T05:57:21;14.40;99.90
11846;DHT22;5982;37.494;-8.758;2023-04-24T05:59:50;14.40;99.90
11846;DHT22;5982;37.494;-8.758;2023-04-24T06:02:18;14.40;99.90
11846;DHT22;5982;37.494;-8.758;2023-04-24T06:04:46;14.50;99.90
11846;DHT22;5982;37.494;-8.758;2023-04-24T06:07:14;14.50;99.90
11846;DHT22;5982;37.494;-8.758;2023-04-24T06:09:41;14.50;99.90
11846;DHT22;5982;37.494;-8.758;2023-04-24T06:12:10;14.70;99.90
11846;DHT22;5982;37.494;-8.758;2023-04-24T06:14:37;15.40;99.90
11846;DHT22;5982;37.494;-8.758;2023-04-24T06:17:07;16.50;99.90
11846;DHT22;5982;37.494;-8.758;2023-04-24T06:19:34;17.60;99.90
11846;DHT22;5982;37.494;-8.758;2023-04-24T06:22:02;18.70;99.90
11846;DHT22;5982;37.494;-8.758;2023-04-24T06:24:30;19.40;99.90
11846;DHT22;5982;37.494;-8.758;2023-04-24T06:26:58;20.00;99.90
11846;DHT22;5982;37.494;-8.758;2023-04-24T06:29:26;20.40;99.90
11846;DHT22;5982;37.494;-8.758;2023-04-24T06:31:54;21.10;99.90
11846;DHT22;5982;37.494;-8.758;2023-04-24T06:34:23;21.70;99.90
11846;DHT22;5982;37.494;-8.758;2023-04-24T06:36:51;22.40;99.90
11846;DHT22;5982;37.494;-8.758;2023-04-24T06:39:19;23.10;99.90
11846;DHT22;5982;37.494;-8.758;2023-04-24T06:41:46;23.80;99.90
11846;DHT22;5982;37.494;-8.758;2023-04-24T06:44:14;24.10;99.90
11846;DHT22;5982;37.494;-8.758;2023-04-24T06:46:42;24.30;99.90
11846;DHT22;5982;37.494;-8.758;2023-04-24T06:49:10;24.70;99.90
11846;DHT22;5982;37.494;-8.758;2023-04-24T06:51:39;24.90;99.90
11846;DHT22;5982;37.494;-8.758;2023-04-24T06:54:07;24.70;99.90
11846;DHT22;5982;37.494;-8.758;2023-04-24T06:56:35;24.10;99.90
11846;DHT22;5982;37.494;-8.758;2023-04-24T06:59:03;23.40;99.90
11846;DHT22;5982;37.494;-8.758;2023-04-24T07:01:30;23.10;99.90
11846;DHT22;5982;37.494;-8.758;2023-04-24T07:03:58;22.60;99.90
11846;DHT22;5982;37.494;-8.758;2023-04-24T07:06:27;21.90;99.90
11846;DHT22;5982;37.494;-8.758;2023-04-24T07:08:57;21.90;99.90
11846;DHT22;5982;37.494;-8.758;2023-04-24T07:11:25;21.70;99.90
11846;DHT22;5982;37.494;-8.758;2023-04-24T07:13:54;20.60;99.90
11846;DHT22;5982;37.494;-8.758;2023-04-24T07:16:22;19.50;99.90
11846;DHT22;5982;37.494;-8.758;2023-04-24T07:18:50;18.90;99.90
11846;DHT22;5982;37.494;-8.758;2023-04-24T07:21:18;18.50;99.90
11846;DHT22;5982;37.494;-8.758;2023-04-24T07:23:45;18.20;99.90
11846;DHT22;5982;37.494;-8.758;2023-04-24T07:26:15;18.20;99.90
11846;DHT22;5982;37.494;-8.758;2023-04-24T07:28:42;18.20;99.90
11846;DHT22;5982;37.494;-8.758;2023-04-24T07:31:11;18.30;99.90
11846;DHT22;5982;37.494;-8.758;2023-04-24T07:33:38;18.50;99.90
11846;DHT22;5982;37.494;-8.758;2023-04-24T07:36:06;18.60;99.90
11846;DHT22;5982;37.494;-8.758;2023-04-24T07:38:40;19.00;99.90
11846;DHT22;5982;37.494;-8.758;2023-04-24T07:41:08;19.30;99.90
11846;DHT22;5982;37.494;-8.758;2023-04-24T07:43:38;19.40;99.90
11846;DHT22;5982;37.494;-8.758;2023-04-24T07:46:06;19.50;99.90
11846;DHT22;5982;37.494;-8.758;2023-04-24T07:48:34;19.80;99.90
11846;DHT22;5982;37.494;-8.758;2023-04-24T07:51:02;20.00;99.90
11846;DHT22;5982;37.494;-8.758;2023-04-24T07:53:29;20.10;99.90
11846;DHT22;5982;37.494;-8.758;2023-04-24T07:55:57;20.20;99.90
11846;DHT22;5982;37.494;-8.758;2023-04-24T07:58:25;20.30;99.90
11846;DHT22;5982;37.494;-8.758;2023-04-24T08:00:54;20.40;99.90
11846;DHT22;5982;37.494;-8.758;2023-04-24T08:03:22;20.30;99.90
11846;DHT22;5982;37.494;-8.758;2023-04-24T08:05:50;20.40;99.90
11846;DHT22;5982;37.494;-8.758;2023-04-24T08:08:19;20.80;99.90
11846;DHT22;5982;37.494;-8.758;2023-04-24T08:10:48;20.80;99.90
11846;DHT22;5982;37.494;-8.758;2023-04-24T08:13:16;21.00;99.90
11846;DHT22;5982;37.494;-8.758;2023-04-24T08:15:43;21.20;99.90
11846;DHT22;5982;37.494;-8.758;2023-04-24T08:18:13;21.40;99.90
11846;DHT22;5982;37.494;-8.758;2023-04-24T08:20:41;21.60;99.90
11846;DHT22;5982;37.494;-8.758;2023-04-24T08:23:09;21.60;99.90
11846;DHT22;5982;37.494;-8.758;2023-04-24T08:25:37;21.70;99.90
11846;DHT22;5982;37.494;-8.758;2023-04-24T08:28:05;21.90;99.90
11846;DHT22;5982;37.494;-8.758;2023-04-24T08:30:33;22.10;99.90
11846;DHT22;5982;37.494;-8.758;2023-04-24T08:33:01;22.40;99.90
11846;DHT22;5982;37.494;-8.758;2023-04-24T08:35:30;22.40;99.90
11846;DHT22;5982;37.494;-8.758;2023-04-24T08:37:58;22.50;99.90
11846;DHT22;5982;37.494;-8.758;2023-04-24T08:40:27;22.50;99.90
11846;DHT22;5982;37.494;-8.758;2023-04-24T08:42:55;22.60;99.90
11846;DHT22;5982;37.494;-8.758;2023-04-24T08:45:23;22.60;99.90
11846;DHT22;5982;37.494;-8.758;2023-04-24T08:47:52;22.70;99.90
11846;DHT22;5982;37.494;-8.758;2023-04-24T08:50:20;22.90;99.90
11846;DHT22;5982;37.494;-8.758;2023-04-24T08:52:51;22.90;99.90
11846;DHT22;5982;37.494;-8.758;2023-04-24T08:55:19;23.00;99.90
11846;DHT22;5982;37.494;-8.758;2023-04-24T08:57:49;23.10;99.90
11846;DHT22;5982;37.494;-8.758;2023-04-24T09:00:18;23.20;99.90
11846;DHT22;5982;37.494;-8.758;2023-04-24T09:02:48;23.30;99.90
11846;DHT22;5982;37.494;-8.758;2023-04-24T09:05:17;23.40;99.90
11846;DHT22;5982;37.494;-8.758;2023-04-24T09:07:49;23.50;99.90
11846;DHT22;5982;37.494;-8.758;2023-04-24T09:10:21;23.40;99.90
11846;DHT22;5982;37.494;-8.758;2023-04-24T09:12:50;23.30;99.90
11846;DHT22;5982;37.494;-8.758;2023-04-24T09:15:18;23.40;99.90
11846;DHT22;5982;37.494;-8.758;2023-04-24T09:17:46;23.40;99.90
11846;DHT22;5982;37.494;-8.758;2023-04-24T09:20:13;23.40;99.90
11846;DHT22;5982;37.494;-8.758;2023-04-24T09:22:41;23.40;99.90
11846;DHT22;5982;37.494;-8.758;2023-04-24T09:25:11;23.40;99.90
11846;DHT22;5982;37.494;-8.758;2023-04-24T09:27:43;23.60;99.90
11846;DHT22;5982;37.494;-8.758;2023-04-24T09:30:12;23.70;99.90
11846;DHT22;5982;37.494;-8.758;2023-04-24T09:32:40;23.80;99.90
11846;DHT22;5982;37.494;-8.758;2023-04-24T09:35:09;23.90;99.90
11846;DHT22;5982;37.494;-8.758;2023-04-24T09:37:38;24.00;99.90
11846;DHT22;5982;37.494;-8.758;2023-04-24T09:40:07;24.10;99.90
11846;DHT22;5982;37.494;-8.758;2023-04-24T09:42:43;24.20;99.90
11846;DHT22;5982;37.494;-8.758;2023-04-24T09:45:12;24.30;99.90
11846;DHT22;5982;37.494;-8.758;2023-04-24T09:47:40;24.30;99.90
11846;DHT22;5982;37.494;-8.758;2023-04-24T09:50:14;24.40;99.90
11846;DHT22;5982;37.494;-8.758;2023-04-24T09:52:43;24.40;99.90
11846;DHT22;5982;37.494;-8.758;2023-04-24T09:55:17;24.40;99.90
11846;DHT22;5982;37.494;-8.758;2023-04-24T09:57:52;24.50;99.90
11846;DHT22;5982;37.494;-8.758;2023-04-24T10:00:25;24.60;99.90
11846;DHT22;5982;37.494;-8.758;2023-04-24T10:02:56;24.80;99.90
11846;DHT22;5982;37.494;-8.758;2023-04-24T10:05:27;25.00;99.90
11846;DHT22;5982;37.494;-8.758;2023-04-24T10:08:00;25.10;99.90
11846;DHT22;5982;37.494;-8.758;2023-04-24T10:10:33;25.20;99.90
11846;DHT22;5982;37.494;-8.758;2023-04-24T10:13:02;25.30;99.90
11846;DHT22;5982;37.494;-8.758;2023-04-24T10:15:30;25.20;99.90
11846;DHT22;5982;37.494;-8.758;2023-04-24T10:17:59;25.20;99.90
11846;DHT22;5982;37.494;-8.758;2023-04-24T10:20:27;25.00;99.90
11846;DHT22;5982;37.494;-8.758;2023-04-24T10:22:57;25.00;99.90
11846;DHT22;5982;37.494;-8.758;2023-04-24T10:25:25;24.90;99.90
11846;DHT22;5982;37.494;-8.758;2023-04-24T10:27:55;24.90;99.90
11846;DHT22;5982;37.494;-8.758;2023-04-24T10:30:25;24.80;99.90
11846;DHT22;5982;37.494;-8.758;2023-04-24T10:32:54;24.80;99.90
11846;DHT22;5982;37.494;-8.758;2023-04-24T10:35:22;24.70;99.90
11846;DHT22;5982;37.494;-8.758;2023-04-24T10:37:54;24.70;99.90
11846;DHT22;5982;37.494;-8.758;2023-04-24T10:40:25;24.70;99.90
11846;DHT22;5982;37.494;-8.758;2023-04-24T10:42:56;24.80;99.90
11846;DHT22;5982;37.494;-8.758;2023-04-24T10:45:24;25.00;99.90
11846;DHT22;5982;37.494;-8.758;2023-04-24T10:47:58;25.20;99.90
11846;DHT22;5982;37.494;-8.758;2023-04-24T10:50:27;25.20;99.90
11846;DHT22;5982;37.494;-8.758;2023-04-24T10:53:05;25.20;99.90
11846;DHT22;5982;37.494;-8.758;2023-04-24T10:55:40;25.30;99.90
11846;DHT22;5982;37.494;-8.758;2023-04-24T10:58:11;25.50;99.90
11846;DHT22;5982;37.494;-8.758;2023-04-24T11:00:40;25.60;99.90
11846;DHT22;5982;37.494;-8.758;2023-04-24T11:03:22;25.50;99.90
11846;DHT22;5982;37.494;-8.758;2023-04-24T11:06:01;25.50;99.90
11846;DHT22;5982;37.494;-8.758;2023-04-24T11:08:31;25.60;99.90
11846;DHT22;5982;37.494;-8.758;2023-04-24T11:11:01;25.70;99.90
11846;DHT22;5982;37.494;-8.758;2023-04-24T11:16:32;25.80;99.90
11846;DHT22;5982;37.494;-8.758;2023-04-24T11:19:04;25.80;99.90
11846;DHT22;5982;37.494;-8.758;2023-04-24T11:21:40;25.80;99.90
11846;DHT22;5982;37.494;-8.758;2023-04-24T11:24:21;25.70;99.90
11846;DHT22;5982;37.494;-8.758;2023-04-24T11:26:54;25.70;99.90
11846;DHT22;5982;37.494;-8.758;2023-04-24T11:29:37;25.50;99.90
11846;DHT22;5982;37.494;-8.758;2023-04-24T11:32:16;25.30;99.90
11846;DHT22;5982;37.494;-8.758;2023-04-24T11:34:53;25.20;99.90
11846;DHT22;5982;37.494;-8.758;2023-04-24T11:37:22;25.30;99.90
11846;DHT22;5982;37.494;-8.758;2023-04-24T11:39:52;25.20;99.90
11846;DHT22;5982;37.494;-8.758;2023-04-24T11:42:21;25.10;99.90
11846;DHT22;5982;37.494;-8.758;2023-04-24T11:44:51;25.00;99.90
11846;DHT22;5982;37.494;-8.758;2023-04-24T11:47:19;24.90;99.90
11846;DHT22;5982;37.494;-8.758;2023-04-24T11:49:50;24.90;99.90
11846;DHT22;5982;37.494;-8.758;2023-04-24T11:52:18;25.00;99.90
11846;DHT22;5982;37.494;-8.758;2023-04-24T11:54:47;25.10;99.90
11846;DHT22;5982;37.494;-8.758;2023-04-24T11:57:18;25.20;99.90
11846;DHT22;5982;37.494;-8.758;2023-04-24T11:59:47;25.10;99.90
11846;DHT22;5982;37.494;-8.758;2023-04-24T12:02:26;25.20;99.90
11846;DHT22;5982;37.494;-8.758;2023-04-24T12:04:54;25.20;99.90
11846;DHT22;5982;37.494;-8.758;2023-04-24T12:07:22;25.30;99.90
11846;DHT22;5982;37.494;-8.758;2023-04-24T12:09:54;25.40;99.90
11846;DHT22;5982;37.494;-8.758;2023-04-24T12:12:24;25.40;99.90
11846;DHT22;5982;37.494;-8.758;2023-04-24T12:14:53;25.20;99.90
11846;DHT22;5982;37.494;-8.758;2023-04-24T12:17:27;25.10;99.90
11846;DHT22;5982;37.494;-8.758;2023-04-24T12:19:59;24.90;99.90
11846;DHT22;5982;37.494;-8.758;2023-04-24T12:22:28;24.80;99.90
11846;DHT22;5982;37.494;-8.758;2023-04-24T12:24:59;24.70;99.90
11846;DHT22;5982;37.494;-8.758;2023-04-24T12:27:31;24.70;99.90
11846;DHT22;5982;37.494;-8.758;2023-04-24T12:30:00;24.70;99.90
11846;DHT22;5982;37.494;-8.758;2023-04-24T12:32:30;24.70;99.90
11846;DHT22;5982;37.494;-8.758;2023-04-24T12:34:58;24.80;99.90
11846;DHT22;5982;37.494;-8.758;2023-04-24T12:37:26;24.80;99.90
11846;DHT22;5982;37.494;-8.758;2023-04-24T12:40:00;24.80;99.90
11846;DHT22;5982;37.494;-8.758;2023-04-24T12:42:29;24.90;99.90
11846;DHT22;5982;37.494;-8.758;2023-04-24T12:44:58;24.90;99.90
11846;DHT22;5982;37.494;-8.758;2023-04-24T12:47:26;25.00;99.90
11846;DHT22;5982;37.494;-8.758;2023-04-24T12:49:56;25.20;99.90
11846;DHT22;5982;37.494;-8.758;2023-04-24T12:52:24;25.10;99.90
11846;DHT22;5982;37.494;-8.758;2023-04-24T12:54:54;25.00;99.90
11846;DHT22;5982;37.494;-8.758;2023-04-24T12:57:22;25.10;99.90
11846;DHT22;5982;37.494;-8.758;2023-04-24T12:59:52;25.20;99.90
11846;DHT22;5982;37.494;-8.758;2023-04-24T13:02:20;25.40;99.90
11846;DHT22;5982;37.494;-8.758;2023-04-24T13:04:49;25.40;99.90
11846;DHT22;5982;37.494;-8.758;2023-04-24T13:07:18;25.30;99.90
11846;DHT22;5982;37.494;-8.758;2023-04-24T13:09:47;25.20;99.90
11846;DHT22;5982;37.494;-8.758;2023-04-24T13:12:15;25.30;99.90
11846;DHT22;5982;37.494;-8.758;2023-04-24T13:14:43;25.30;99.90
11846;DHT22;5982;37.494;-8.758;2023-04-24T13:17:11;25.30;99.90
11846;DHT22;5982;37.494;-8.758;2023-04-24T13:19:40;25.20;99.90
11846;DHT22;5982;37.494;-8.758;2023-04-24T13:22:09;25.20;99.90
11846;DHT22;5982;37.494;-8.758;2023-04-24T13:24:39;25.30;99.90
11846;DHT22;5982;37.494;-8.758;2023-04-24T13:27:07;25.50;99.90
11846;DHT22;5982;37.494;-8.758;2023-04-24T13:29:35;25.60;99.90
11846;DHT22;5982;37.494;-8.758;2023-04-24T13:32:03;25.70;99.90
11846;DHT22;5982;37.494;-8.758;2023-04-24T13:34:31;25.90;99.90
11846;DHT22;5982;37.494;-8.758;2023-04-24T13:37:00;25.90;99.90
11846;DHT22;5982;37.494;-8.758;2023-04-24T13:39:29;26.20;99.90
11846;DHT22;5982;37.494;-8.758;2023-04-24T13:41:58;26.50;99.90
11846;DHT22;5982;37.494;-8.758;2023-04-24T13:44:26;26.70;99.90
11846;DHT22;5982;37.494;-8.758;2023-04-24T13:46:54;26.80;99.90
11846;DHT22;5982;37.494;-8.758;2023-04-24T13:49:23;26.70;99.90
11846;DHT22;5982;37.494;-8.758;2023-04-24T13:51:52;26.90;99.90
11846;DHT22;5982;37.494;-8.758;2023-04-24T13:54:20;27.00;99.90
11846;DHT22;5982;37.494;-8.758;2023-04-24T13:56:49;26.90;99.90
11846;DHT22;5982;37.494;-8.758;2023-04-24T13:59:19;26.80;99.90
11846;DHT22;5982;37.494;-8.758;2023-04-24T14:01:47;26.90;99.90
11846;DHT22;5982;37.494;-8.758;2023-04-24T14:04:14;26.80;99.90
11846;DHT22;5982;37.494;-8.758;2023-04-24T14:06:43;26.80;99.90
11846;DHT22;5982;37.494;-8.758;2023-04-24T14:09:11;26.80;99.90
11846;DHT22;5982;37.494;-8.758;2023-04-24T14:11:38;26.80;99.90
11846;DHT22;5982;37.494;-8.758;2023-04-24T14:14:06;26.80;99.90
11846;DHT22;5982;37.494;-8.758;2023-04-24T14:16:36;26.90;99.90
11846;DHT22;5982;37.494;-8.758;2023-04-24T14:19:04;27.00;99.90
11846;DHT22;5982;37.494;-8.758;2023-04-24T14:21:32;26.80;99.90
11846;DHT22;5982;37.494;-8.758;2023-04-24T14:24:00;26.70;99.90
11846;DHT22;5982;37.494;-8.758;2023-04-24T14:26:28;26.60;99.90
11846;DHT22;5982;37.494;-8.758;2023-04-24T14:28:55;26.70;99.90
11846;DHT22;5982;37.494;-8.758;2023-04-24T14:31:24;26.70;99.90
11846;DHT22;5982;37.494;-8.758;2023-04-24T14:33:53;26.80;99.90
11846;DHT22;5982;37.494;-8.758;2023-04-24T14:36:21;26.70;99.90
11846;DHT22;5982;37.494;-8.758;2023-04-24T14:38:49;26.70;99.90
11846;DHT22;5982;37.494;-8.758;2023-04-24T14:41:16;26.80;99.90
11846;DHT22;5982;37.494;-8.758;2023-04-24T14:43:44;26.90;99.90
11846;DHT22;5982;37.494;-8.758;2023-04-24T14:46:12;27.20;99.90
11846;DHT22;5982;37.494;-8.758;2023-04-24T14:48:40;27.40;99.90
11846;DHT22;5982;37.494;-8.758;2023-04-24T14:51:10;27.50;99.90
11846;DHT22;5982;37.494;-8.758;2023-04-24T14:53:37;27.60;99.90
11846;DHT22;5982;37.494;-8.758;2023-04-24T14:56:06;27.50;99.90
11846;DHT22;5982;37.494;-8.758;2023-04-24T14:58:34;27.60;99.90
11846;DHT22;5982;37.494;-8.758;2023-04-24T15:01:02;27.70;99.90
11846;DHT22;5982;37.494;-8.758;2023-04-24T15:03:30;27.60;99.90
11846;DHT22;5982;37.494;-8.758;2023-04-24T15:05:57;27.40;99.90
11846;DHT22;5982;37.494;-8.758;2023-04-24T15:08:28;27.20;99.90
11846;DHT22;5982;37.494;-8.758;2023-04-24T15:10:55;27.00;99.90
11846;DHT22;5982;37.494;-8.758;2023-04-24T15:13:23;26.90;99.90
11846;DHT22;5982;37.494;-8.758;2023-04-24T15:15:51;26.90;99.90
11846;DHT22;5982;37.494;-8.758;2023-04-24T15:18:19;26.80;99.90
11846;DHT22;5982;37.494;-8.758;2023-04-24T15:20:47;26.80;99.90
11846;DHT22;5982;37.494;-8.758;2023-04-24T15:23:14;26.80;99.90
11846;DHT22;5982;37.494;-8.758;2023-04-24T15:25:44;27.00;99.90
11846;DHT22;5982;37.494;-8.758;2023-04-24T15:28:11;27.10;99.90
11846;DHT22;5982;37.494;-8.758;2023-04-24T15:30:39;27.20;99.90
11846;DHT22;5982;37.494;-8.758;2023-04-24T15:33:07;27.40;99.90
11846;DHT22;5982;37.494;-8.758;2023-04-24T15:35:35;27.50;99.90
11846;DHT22;5982;37.494;-8.758;2023-04-24T15:38:02;27.40;99.90
11846;DHT22;5982;37.494;-8.758;2023-04-24T15:40:30;27.30;99.90
11846;DHT22;5982;37.494;-8.758;2023-04-24T15:42:59;27.10;99.90
11846;DHT22;5982;37.494;-8.758;2023-04-24T15:45:27;26.90;99.90